Time;durP1;ratioP1;P1;durP2;ratioP2;P2;SDS_P1;SDS_P2;PMS_P1;PMS_P2;Temp;Humidity;BMP_temperature;BMP_pressure;BME280_temperature;BME280_humidity;BME280_pressure;Samples;Min_cycle;Max_cycle;Signal;HPM_P1;HPM_P2
2022/04/09 00:02:22;;;;;;;;;;;2.30;99.40;;;;;;5063770;28;19944;-66
2022/04/09 00:04:48;;;;;;;;;;;2.40;99.40;;;;;;5063959;28;20262;-66
2022/04/09 00:07:14;;;;;;;;;;;2.40;99.30;;;;;;5063837;28;20253;-66
2022/04/09 00:09:40;;;;;;;;;;;2.40;99.30;;;;;;5063906;28;19908;-66
2022/04/09 00:12:05;;;;;;;;;;;2.40;99.30;;;;;;5063550;28;19915;-66
2022/04/09 00:14:31;;;;;;;;;;;2.30;99.30;;;;;;5063413;28;19915;-66
2022/04/09 00:16:57;;;;;;;;;;;2.40;99.30;;;;;;5063619;28;19916;-65
2022/04/09 00:19:23;;;;;;;;;;;2.40;99.30;;;;;;5063696;28;19944;-66
2022/04/09 00:21:48;;;;;;;;;;;2.30;99.30;;;;;;5045669;28;20081;-66
2022/04/09 00:24:14;;;;;;;;;;;2.40;99.40;;;;;;5063554;28;19909;-66
2022/04/09 00:26:40;;;;;;;;;;;2.30;99.40;;;;;;5063461;28;19917;-66
2022/04/09 00:29:06;;;;;;;;;;;2.40;99.40;;;;;;5063054;28;19909;-65
2022/04/09 00:31:32;;;;;;;;;;;2.40;99.40;;;;;;5062863;28;20130;-65
2022/04/09 00:33:59;;;;;;;;;;;2.40;99.40;;;;;;5045100;28;19988;-65
2022/04/09 00:36:24;;;;;;;;;;;2.30;99.50;;;;;;5063409;28;19908;-66
2022/04/09 00:38:50;;;;;;;;;;;2.30;99.40;;;;;;5063163;28;19919;-65
2022/04/09 00:41:16;;;;;;;;;;;2.30;99.60;;;;;;5063138;28;20246;-65
2022/04/09 00:43:41;;;;;;;;;;;2.30;99.50;;;;;;5062981;28;20070;-64
2022/04/09 00:46:08;;;;;;;;;;;2.30;99.40;;;;;;5063134;28;19952;-65
2022/04/09 00:48:35;;;;;;;;;;;2.30;99.50;;;;;;5063041;28;19913;-65
2022/04/09 00:51:01;;;;;;;;;;;2.20;99.50;;;;;;5045179;28;20175;-65
2022/04/09 00:53:26;;;;;;;;;;;2.30;99.60;;;;;;5063059;28;19909;-65
2022/04/09 00:58:36;;;;;;;;;;;2.20;99.70;;;;;;5062543;28;19923;-66
2022/04/09 01:01:02;;;;;;;;;;;2.20;99.80;;;;;;5044766;28;19961;-65
2022/04/09 01:03:27;;;;;;;;;;;2.20;99.80;;;;;;5045257;28;19921;-65
2022/04/09 01:05:53;;;;;;;;;;;2.20;99.80;;;;;;5045127;28;19909;-66
2022/04/09 01:08:19;;;;;;;;;;;2.20;99.80;;;;;;5044960;28;20258;-66
2022/04/09 01:10:50;;;;;;;;;;;2.10;99.90;;;;;;5062433;28;20204;-65
2022/04/09 01:13:16;;;;;;;;;;;2.10;99.90;;;;;;5062417;28;19955;-65
2022/04/09 01:15:42;;;;;;;;;;;2.10;99.90;;;;;;5045052;28;19935;-66
2022/04/09 01:18:08;;;;;;;;;;;2.10;99.90;;;;;;5044832;28;19958;-66
2022/04/09 01:20:33;;;;;;;;;;;2.10;99.90;;;;;;5044794;28;20004;-66
2022/04/09 01:22:59;;;;;;;;;;;2.20;99.90;;;;;;5062457;28;19947;-66
2022/04/09 01:25:25;;;;;;;;;;;2.20;99.90;;;;;;5062472;28;19916;-66
2022/04/09 01:27:50;;;;;;;;;;;2.20;99.90;;;;;;5061921;28;19963;-65
2022/04/09 01:30:16;;;;;;;;;;;2.10;99.90;;;;;;5062606;28;19972;-66
2022/04/09 01:32:42;;;;;;;;;;;2.20;99.90;;;;;;5062345;28;19924;-66
2022/04/09 01:35:08;;;;;;;;;;;2.10;99.90;;;;;;5062407;28;20212;-66
2022/04/09 01:37:34;;;;;;;;;;;2.10;99.90;;;;;;5062365;28;19913;-66
2022/04/09 01:39:59;;;;;;;;;;;2.20;99.90;;;;;;5062293;28;19916;-66
2022/04/09 01:42:26;;;;;;;;;;;2.20;99.90;;;;;;5062078;28;20014;-65
2022/04/09 01:44:52;;;;;;;;;;;2.20;99.90;;;;;;5066179;28;19923;-66
2022/04/09 01:47:18;;;;;;;;;;;2.20;99.90;;;;;;5068750;28;20201;-66
2022/04/09 01:49:43;;;;;;;;;;;2.20;99.90;;;;;;5069019;28;19909;-66
2022/04/09 01:52:09;;;;;;;;;;;2.20;99.90;;;;;;5068728;28;20115;-66
2022/04/09 01:54:35;;;;;;;;;;;2.20;99.90;;;;;;5069558;28;19947;-66
2022/04/09 01:57:00;;;;;;;;;;;2.30;99.90;;;;;;5068819;28;19916;-66
2022/04/09 01:59:26;;;;;;;;;;;2.30;99.90;;;;;;5068710;28;19924;-66
2022/04/09 02:01:52;;;;;;;;;;;2.40;99.80;;;;;;5068664;28;19981;-66
2022/04/09 02:04:17;;;;;;;;;;;2.30;99.80;;;;;;5068984;28;19908;-66
2022/04/09 02:06:44;;;;;;;;;;;2.20;99.90;;;;;;5068920;28;19959;-66
2022/04/09 02:09:13;;;;;;;;;;;2.20;99.90;;;;;;5068777;28;19909;-66
2022/04/09 02:11:41;;;;;;;;;;;2.10;99.90;;;;;;5068772;28;19916;-67
2022/04/09 02:14:10;;;;;;;;;;;2.10;99.90;;;;;;5051274;28;19991;-67
2022/04/09 02:16:37;;;;;;;;;;;2.20;99.90;;;;;;5068913;28;19939;-67
2022/04/09 02:19:03;;;;;;;;;;;2.20;99.90;;;;;;5068720;28;20115;-66
2022/04/09 02:21:29;;;;;;;;;;;2.20;99.90;;;;;;5050817;28;19909;-66
2022/04/09 02:23:54;;;;;;;;;;;2.20;99.90;;;;;;5050956;28;19943;-67
2022/04/09 02:26:20;;;;;;;;;;;2.20;99.90;;;;;;5068692;28;19976;-66
2022/04/09 02:28:49;;;;;;;;;;;2.30;99.90;;;;;;5068404;28;20108;-67
2022/04/09 02:31:18;;;;;;;;;;;2.30;99.90;;;;;;5067695;28;19908;-66
2022/04/09 02:33:47;;;;;;;;;;;2.30;99.90;;;;;;5068783;28;19908;-67
2022/04/09 02:36:13;;;;;;;;;;;2.20;99.90;;;;;;5051152;28;19912;-67
2022/04/09 02:38:39;;;;;;;;;;;2.20;99.90;;;;;;5068908;28;20114;-66
2022/04/09 02:41:05;;;;;;;;;;;2.30;99.90;;;;;;5068639;28;19919;-67
2022/04/09 02:43:31;;;;;;;;;;;2.30;99.90;;;;;;5051157;28;19913;-67
2022/04/09 02:45:57;;;;;;;;;;;2.30;99.90;;;;;;5068820;28;19954;-67
2022/04/09 02:48:23;;;;;;;;;;;2.30;99.90;;;;;;5068394;28;19920;-66
2022/04/09 02:50:48;;;;;;;;;;;2.30;99.80;;;;;;5068088;28;19909;-67
2022/04/09 02:53:14;;;;;;;;;;;2.30;99.90;;;;;;5068659;28;19909;-67
2022/04/09 02:55:40;;;;;;;;;;;2.30;99.90;;;;;;5065979;28;19920;-67
2022/04/09 02:58:06;;;;;;;;;;;2.40;99.90;;;;;;5065418;28;20395;-66
2022/04/09 03:00:32;;;;;;;;;;;2.30;99.80;;;;;;5065252;28;19916;-67
2022/04/09 03:02:57;;;;;;;;;;;2.30;99.90;;;;;;5047420;28;19909;-66
2022/04/09 03:05:23;;;;;;;;;;;2.30;99.90;;;;;;5065169;28;19915;-66
2022/04/09 03:07:49;;;;;;;;;;;2.30;99.90;;;;;;5064464;28;19932;-67
2022/04/09 03:10:14;;;;;;;;;;;2.30;99.90;;;;;;5065020;28;20089;-67
2022/04/09 03:12:44;;;;;;;;;;;2.30;99.90;;;;;;5065068;28;19908;-67
2022/04/09 03:15:10;;;;;;;;;;;2.30;99.90;;;;;;5064810;28;19909;-67
2022/04/09 03:17:35;;;;;;;;;;;2.30;99.90;;;;;;5064365;28;19913;-66
2022/04/09 03:20:01;;;;;;;;;;;2.30;99.90;;;;;;5064776;28;19920;-66
2022/04/09 03:22:28;;;;;;;;;;;2.30;99.90;;;;;;5064516;28;19915;-67
2022/04/09 03:25:00;;;;;;;;;;;2.30;99.90;;;;;;5064799;28;19915;-66
2022/04/09 03:27:26;;;;;;;;;;;2.30;99.90;;;;;;5064543;28;19988;-66
2022/04/09 03:29:54;;;;;;;;;;;2.30;99.90;;;;;;5064566;28;19917;-67
2022/04/09 03:32:20;;;;;;;;;;;2.30;99.90;;;;;;5064424;28;19974;-66
2022/04/09 03:34:46;;;;;;;;;;;2.30;99.90;;;;;;5064525;28;20224;-66
2022/04/09 03:37:12;;;;;;;;;;;2.30;99.90;;;;;;5064412;28;19913;-66
2022/04/09 03:39:38;;;;;;;;;;;2.40;99.90;;;;;;5064605;28;19947;-67
2022/04/09 03:42:04;;;;;;;;;;;2.40;99.90;;;;;;5060060;28;19990;-66
2022/04/09 03:44:30;;;;;;;;;;;2.40;99.90;;;;;;5064352;28;20269;-66
2022/04/09 03:47:03;;;;;;;;;;;2.40;99.90;;;;;;5064246;28;19924;-66
2022/04/09 03:49:29;;;;;;;;;;;2.40;99.90;;;;;;5064877;28;19909;-66
2022/04/09 03:51:55;;;;;;;;;;;2.40;99.90;;;;;;5063747;28;19908;-66
2022/04/09 03:54:21;;;;;;;;;;;2.40;99.90;;;;;;5064347;28;19920;-67
2022/04/09 03:56:46;;;;;;;;;;;2.50;99.90;;;;;;5064510;28;19989;-66
2022/04/09 03:59:12;;;;;;;;;;;2.50;99.90;;;;;;5064203;28;19979;-66
2022/04/09 04:01:38;;;;;;;;;;;2.40;99.90;;;;;;5064072;28;19909;-66
2022/04/09 04:04:04;;;;;;;;;;;2.50;99.90;;;;;;5064186;28;19909;-65
2022/04/09 04:06:29;;;;;;;;;;;2.50;99.90;;;;;;5064048;28;19945;-66
2022/04/09 04:08:58;;;;;;;;;;;2.40;99.90;;;;;;5064036;28;20205;-66
2022/04/09 04:11:24;;;;;;;;;;;2.50;99.90;;;;;;5063820;28;19913;-67
2022/04/09 04:13:50;;;;;;;;;;;2.30;99.90;;;;;;5063931;28;19908;-67
2022/04/09 04:16:16;;;;;;;;;;;2.30;99.90;;;;;;5064009;28;19936;-66
2022/04/09 04:18:42;;;;;;;;;;;2.20;99.90;;;;;;5063914;28;19917;-66
2022/04/09 04:21:08;;;;;;;;;;;2.20;99.90;;;;;;5063594;28;20144;-66
2022/04/09 04:23:34;;;;;;;;;;;2.20;99.90;;;;;;5063723;28;19936;-66
2022/04/09 04:25:59;;;;;;;;;;;2.10;99.90;;;;;;5063686;28;19909;-66
2022/04/09 04:28:25;;;;;;;;;;;2.10;99.90;;;;;;5063225;28;19990;-65
2022/04/09 04:30:51;;;;;;;;;;;2.20;99.90;;;;;;5063368;28;19909;-66
2022/04/09 04:33:16;;;;;;;;;;;2.10;99.90;;;;;;5063606;28;20089;-66
2022/04/09 04:35:42;;;;;;;;;;;2.20;99.90;;;;;;5063609;28;19908;-68
2022/04/09 04:38:08;;;;;;;;;;;2.10;99.90;;;;;;5045523;28;19913;-67
2022/04/09 04:40:33;;;;;;;;;;;2.10;99.90;;;;;;5063222;28;20167;-67
2022/04/09 04:42:59;;;;;;;;;;;2.00;99.90;;;;;;5063269;28;19917;-67
2022/04/09 04:45:25;;;;;;;;;;;2.00;99.90;;;;;;5063115;28;20219;-68
2022/04/09 04:47:50;;;;;;;;;;;2.10;99.90;;;;;;5063294;28;19919;-67
2022/04/09 04:50:17;;;;;;;;;;;2.10;99.90;;;;;;5062948;28;19916;-67
2022/04/09 04:52:42;;;;;;;;;;;2.10;99.90;;;;;;5063225;28;20107;-67
2022/04/09 04:55:09;;;;;;;;;;;2.10;99.90;;;;;;5063531;28;19909;-66
2022/04/09 04:57:46;;;;;;;;;;;2.20;99.90;;;;;;5063139;28;19909;-67
2022/04/09 05:00:16;;;;;;;;;;;2.10;99.90;;;;;;5045475;28;19916;-67
2022/04/09 05:02:42;;;;;;;;;;;2.10;99.90;;;;;;5045731;28;19908;-67
2022/04/09 05:05:08;;;;;;;;;;;2.10;99.90;;;;;;5063203;28;20308;-67
2022/04/09 05:07:44;;;;;;;;;;;2.10;99.90;;;;;;5063092;28;19913;-67
2022/04/09 05:10:11;;;;;;;;;;;2.10;99.90;;;;;;5063559;28;19916;-67
2022/04/09 05:12:37;;;;;;;;;;;2.00;99.90;;;;;;5062979;28;19916;-66
2022/04/09 05:15:03;;;;;;;;;;;2.00;99.90;;;;;;5063272;28;19909;-66
2022/04/09 05:17:29;;;;;;;;;;;2.00;99.90;;;;;;5063451;28;19909;-66
2022/04/09 05:19:55;;;;;;;;;;;2.00;99.90;;;;;;5064995;28;19916;-65
2022/04/09 05:22:20;;;;;;;;;;;1.90;99.90;;;;;;5062823;28;19917;-66
2022/04/09 05:24:46;;;;;;;;;;;1.90;99.90;;;;;;5062920;28;20413;-66
2022/04/09 05:27:12;;;;;;;;;;;2.00;99.90;;;;;;5062712;28;19920;-66
2022/04/09 05:29:37;;;;;;;;;;;2.00;99.90;;;;;;5062503;28;20030;-66
2022/04/09 05:32:05;;;;;;;;;;;2.10;99.90;;;;;;5062282;28;20219;-66
2022/04/09 05:34:31;;;;;;;;;;;2.10;99.90;;;;;;5062717;28;19915;-67
2022/04/09 05:36:57;;;;;;;;;;;2.20;99.90;;;;;;5062489;28;19917;-66
2022/04/09 05:39:22;;;;;;;;;;;2.20;99.90;;;;;;5061709;28;19916;-66
2022/04/09 05:41:48;;;;;;;;;;;2.30;99.90;;;;;;5062249;28;19913;-65
2022/04/09 05:44:14;;;;;;;;;;;2.30;99.90;;;;;;5062802;28;19947;-65
2022/04/09 05:46:39;;;;;;;;;;;2.40;99.90;;;;;;5062346;28;19915;-65
2022/04/09 05:49:05;;;;;;;;;;;2.40;99.90;;;;;;5062463;28;19909;-66
2022/04/09 05:51:31;;;;;;;;;;;2.40;99.90;;;;;;5062287;28;20321;-66
2022/04/09 05:53:56;;;;;;;;;;;2.40;99.80;;;;;;5062409;28;19916;-66
2022/04/09 05:56:22;;;;;;;;;;;2.50;99.90;;;;;;5062350;28;19917;-65
2022/04/09 05:58:48;;;;;;;;;;;2.60;99.70;;;;;;5062042;28;20156;-66
2022/04/09 06:01:14;;;;;;;;;;;2.60;99.70;;;;;;5061930;28;19966;-65
2022/04/09 06:03:39;;;;;;;;;;;2.70;99.60;;;;;;5062268;28;20350;-66
2022/04/09 06:06:05;;;;;;;;;;;2.60;99.50;;;;;;5062460;28;19909;-66
2022/04/09 06:08:33;;;;;;;;;;;2.60;99.50;;;;;;5062226;28;20212;-66
2022/04/09 06:10:59;;;;;;;;;;;2.70;99.60;;;;;;5061944;28;19955;-66
2022/04/09 06:13:25;;;;;;;;;;;2.70;99.40;;;;;;5061465;28;20143;-66
2022/04/09 06:15:51;;;;;;;;;;;2.80;99.30;;;;;;5062211;28;20197;-65
2022/04/09 06:18:16;;;;;;;;;;;2.80;99.20;;;;;;5062255;28;19917;-65
2022/04/09 06:20:42;;;;;;;;;;;2.80;98.80;;;;;;5061969;28;19963;-65
2022/04/09 06:23:08;;;;;;;;;;;2.90;98.80;;;;;;5061610;28;19987;-66
2022/04/09 06:25:34;;;;;;;;;;;3.00;98.80;;;;;;5062400;28;20158;-66
2022/04/09 06:28:00;;;;;;;;;;;3.00;98.60;;;;;;5069736;28;19991;-66
2022/04/09 06:30:26;;;;;;;;;;;3.00;98.70;;;;;;5122344;22;19920;-67
2022/04/09 06:32:52;;;;;;;;;;;3.10;98.70;;;;;;5108292;28;19953;-67
2022/04/09 06:35:18;;;;;;;;;;;3.10;98.60;;;;;;5105640;28;19912;-67
2022/04/09 06:37:43;;;;;;;;;;;3.20;98.40;;;;;;5097256;28;19914;-67
2022/04/09 06:40:09;;;;;;;;;;;3.20;98.00;;;;;;5094836;28;19920;-68
2022/04/09 06:42:36;;;;;;;;;;;3.30;98.40;;;;;;5085951;28;20200;-67
2022/04/09 06:45:03;;;;;;;;;;;3.30;98.20;;;;;;5064689;28;19912;-67
2022/04/09 06:47:28;;;;;;;;;;;3.50;97.80;;;;;;5092439;28;19970;-68
2022/04/09 06:49:54;;;;;;;;;;;3.30;97.50;;;;;;5103026;28;19920;-67
2022/04/09 06:52:20;;;;;;;;;;;3.40;97.80;;;;;;5085552;28;19969;-67
2022/04/09 06:54:45;;;;;;;;;;;3.40;97.50;;;;;;5085667;28;19908;-67
2022/04/09 06:57:11;;;;;;;;;;;3.40;97.80;;;;;;5105723;28;19908;-67
2022/04/09 06:59:37;;;;;;;;;;;3.50;97.50;;;;;;5105411;28;19974;-67
2022/04/09 07:02:03;;;;;;;;;;;3.50;97.20;;;;;;5105539;28;19923;-67
2022/04/09 07:04:28;;;;;;;;;;;3.50;97.30;;;;;;5105832;28;20219;-67
2022/04/09 07:06:54;;;;;;;;;;;3.50;97.10;;;;;;5105734;28;19939;-67
2022/04/09 07:09:20;;;;;;;;;;;3.50;97.30;;;;;;5105766;28;19915;-67
2022/04/09 07:11:45;;;;;;;;;;;3.50;97.20;;;;;;5107376;28;19984;-67
2022/04/09 07:14:11;;;;;;;;;;;3.40;97.40;;;;;;5105327;28;19915;-67
2022/04/09 07:16:38;;;;;;;;;;;3.40;97.60;;;;;;5105538;28;20013;-67
2022/04/09 07:19:07;;;;;;;;;;;3.30;97.70;;;;;;5105463;28;19908;-68
2022/04/09 07:21:33;;;;;;;;;;;3.30;97.50;;;;;;5105170;28;20092;-67
2022/04/09 07:23:58;;;;;;;;;;;3.40;97.30;;;;;;5105473;28;19908;-66
2022/04/09 07:26:24;;;;;;;;;;;3.50;97.00;;;;;;5105537;28;20072;-66
2022/04/09 07:28:50;;;;;;;;;;;3.70;97.00;;;;;;5104814;28;19958;-67
2022/04/09 07:31:15;;;;;;;;;;;3.80;96.30;;;;;;5104953;28;19977;-68
2022/04/09 07:33:41;;;;;;;;;;;3.90;96.30;;;;;;5105267;28;20001;-67
2022/04/09 07:36:07;;;;;;;;;;;3.80;95.70;;;;;;5105337;28;19975;-67
2022/04/09 07:38:32;;;;;;;;;;;3.70;96.10;;;;;;5105129;28;19908;-67
2022/04/09 07:40:58;;;;;;;;;;;3.60;96.20;;;;;;5104636;28;19919;-67
2022/04/09 07:43:24;;;;;;;;;;;3.60;96.30;;;;;;5104856;28;19943;-67
2022/04/09 07:45:49;;;;;;;;;;;3.60;96.70;;;;;;5105009;28;19916;-68
2022/04/09 07:48:15;;;;;;;;;;;3.50;96.40;;;;;;5104114;28;19913;-66
2022/04/09 07:50:41;;;;;;;;;;;3.50;96.90;;;;;;5104654;28;20199;-66
2022/04/09 07:53:11;;;;;;;;;;;3.50;97.00;;;;;;5100920;28;20178;-66
2022/04/09 07:55:36;;;;;;;;;;;3.60;96.80;;;;;;5104701;28;19953;-65
2022/04/09 07:58:02;;;;;;;;;;;3.60;96.50;;;;;;5104654;28;20207;-66
2022/04/09 08:00:28;;;;;;;;;;;3.60;96.50;;;;;;5103332;28;20262;-66
2022/04/09 08:02:54;;;;;;;;;;;3.50;96.60;;;;;;5102206;28;19926;-66
2022/04/09 08:05:19;;;;;;;;;;;3.50;96.30;;;;;;5104527;28;19915;-66
2022/04/09 08:07:46;;;;;;;;;;;3.50;96.70;;;;;;5104587;28;19947;-66
2022/04/09 08:10:12;;;;;;;;;;;3.50;96.70;;;;;;5104438;28;19908;-66
2022/04/09 08:12:38;;;;;;;;;;;3.50;96.60;;;;;;5104150;28;19986;-66
2022/04/09 08:15:04;;;;;;;;;;;3.60;96.50;;;;;;5104151;28;19912;-66
2022/04/09 08:17:30;;;;;;;;;;;3.70;96.30;;;;;;5104316;28;20207;-66
2022/04/09 08:19:56;;;;;;;;;;;3.90;96.10;;;;;;5104241;28;19953;-66
2022/04/09 08:22:22;;;;;;;;;;;3.90;95.80;;;;;;5104088;28;19935;-67
2022/04/09 08:24:48;;;;;;;;;;;4.00;95.90;;;;;;5104226;28;20115;-67
2022/04/09 08:27:14;;;;;;;;;;;4.10;95.80;;;;;;5104118;28;19916;-66
2022/04/09 08:29:40;;;;;;;;;;;4.20;95.40;;;;;;5103740;28;19975;-66
2022/04/09 08:32:06;;;;;;;;;;;4.50;94.90;;;;;;5103854;28;19915;-66
2022/04/09 08:34:35;;;;;;;;;;;4.60;94.70;;;;;;5091241;28;20108;-66
2022/04/09 08:37:01;;;;;;;;;;;4.60;94.10;;;;;;5083686;28;19915;-66
2022/04/09 08:39:27;;;;;;;;;;;4.70;94.30;;;;;;5083662;28;19908;-66
2022/04/09 08:41:53;;;;;;;;;;;4.80;94.10;;;;;;5083286;28;19940;-67
2022/04/09 08:44:19;;;;;;;;;;;4.90;93.80;;;;;;5083163;28;19970;-66
2022/04/09 08:46:46;;;;;;;;;;;4.90;93.20;;;;;;5083494;28;19915;-66
2022/04/09 08:49:12;;;;;;;;;;;4.80;93.50;;;;;;5083569;28;20207;-66
2022/04/09 08:51:38;;;;;;;;;;;4.80;93.80;;;;;;5065489;28;19943;-66
2022/04/09 08:54:04;;;;;;;;;;;4.90;93.60;;;;;;5064852;28;19915;-66
2022/04/09 08:56:33;;;;;;;;;;;4.80;93.70;;;;;;5083318;28;19909;-66
2022/04/09 08:58:59;;;;;;;;;;;4.90;93.60;;;;;;5086635;28;19908;-66
2022/04/09 09:01:25;;;;;;;;;;;5.00;93.40;;;;;;5102927;28;19908;-67
2022/04/09 09:03:51;;;;;;;;;;;5.00;92.90;;;;;;5103458;28;19979;-66
2022/04/09 09:06:31;;;;;;;;;;;5.20;92.10;;;;;;5103499;28;19971;-66
2022/04/09 09:08:58;;;;;;;;;;;5.20;92.10;;;;;;5103259;28;19923;-66
2022/04/09 09:11:24;;;;;;;;;;;5.20;92.60;;;;;;5102982;28;20207;-66
2022/04/09 09:13:51;;;;;;;;;;;5.50;92.10;;;;;;5103272;28;19908;-67
2022/04/09 09:16:29;;;;;;;;;;;5.50;91.90;;;;;;5102883;28;19915;-67
2022/04/09 09:19:01;;;;;;;;;;;5.60;91.80;;;;;;5085319;28;19908;-66
2022/04/09 09:21:27;;;;;;;;;;;5.60;91.60;;;;;;5102929;28;20115;-66
2022/04/09 09:24:12;;;;;;;;;;;5.70;90.90;;;;;;5103231;28;19908;-66
2022/04/09 09:26:40;;;;;;;;;;;5.70;91.10;;;;;;5096174;28;19912;-66
2022/04/09 09:29:08;;;;;;;;;;;5.70;90.90;;;;;;5100167;28;19912;-67
2022/04/09 09:31:46;;;;;;;;;;;5.60;91.30;;;;;;5094116;28;19912;-67
2022/04/09 09:34:14;;;;;;;;;;;5.60;90.50;;;;;;5094766;28;19927;-67
2022/04/09 09:36:41;;;;;;;;;;;5.50;90.60;;;;;;5103044;28;19953;-67
2022/04/09 09:39:12;;;;;;;;;;;5.70;91.10;;;;;;5103096;28;19908;-67
2022/04/09 09:41:52;;;;;;;;;;;5.80;90.60;;;;;;5087821;28;19920;-67
2022/04/09 09:44:18;;;;;;;;;;;5.90;90.00;;;;;;5093346;28;20161;-67
2022/04/09 09:46:49;;;;;;;;;;;6.20;90.00;;;;;;5082609;28;20190;-68
2022/04/09 09:49:19;;;;;;;;;;;6.30;90.00;;;;;;5092832;28;20115;-67
2022/04/09 09:52:01;;;;;;;;;;;6.40;89.60;;;;;;5095061;28;19927;-67
2022/04/09 09:54:27;;;;;;;;;;;6.40;89.20;;;;;;5094022;28;19932;-67
2022/04/09 09:56:53;;;;;;;;;;;6.30;87.60;;;;;;5101707;28;19908;-68
2022/04/09 09:59:20;;;;;;;;;;;6.40;88.30;;;;;;5099069;28;19915;-67
2022/04/09 10:01:49;;;;;;;;;;;6.60;89.20;;;;;;5102506;28;19908;-67
2022/04/09 10:04:15;;;;;;;;;;;6.70;88.50;;;;;;5103040;28;19915;-67
2022/04/09 10:06:44;;;;;;;;;;;6.70;87.00;;;;;;5103875;28;19914;-66
2022/04/09 10:09:13;;;;;;;;;;;6.60;85.40;;;;;;5103979;28;19953;-67
2022/04/09 10:11:42;;;;;;;;;;;6.60;87.00;;;;;;5104686;28;19912;-66
2022/04/09 10:14:10;;;;;;;;;;;6.60;86.60;;;;;;5106730;28;19908;-66
2022/04/09 10:16:36;;;;;;;;;;;6.60;84.80;;;;;;5106579;28;19980;-66
2022/04/09 10:19:05;;;;;;;;;;;6.60;85.70;;;;;;5106710;28;19970;-66
2022/04/09 10:21:34;;;;;;;;;;;6.60;85.30;;;;;;5105365;28;19947;-66
2022/04/09 10:24:02;;;;;;;;;;;6.70;85.20;;;;;;5088906;28;19908;-66
2022/04/09 10:26:28;;;;;;;;;;;6.70;86.20;;;;;;5100008;28;20034;-66
2022/04/09 10:29:08;;;;;;;;;;;6.80;85.90;;;;;;5106189;28;20195;-66
2022/04/09 10:31:41;;;;;;;;;;;7.00;85.80;;;;;;5104647;28;19949;-66
2022/04/09 10:34:10;;;;;;;;;;;7.20;83.60;;;;;;5100203;28;19912;-66
2022/04/09 10:36:45;;;;;;;;;;;7.30;84.20;;;;;;5106222;28;20075;-66
2022/04/09 10:39:36;;;;;;;;;;;7.20;84.70;;;;;;5102522;28;19915;-66
2022/04/09 10:42:02;;;;;;;;;;;7.10;83.10;;;;;;5105531;28;19908;-66
2022/04/09 10:44:37;;;;;;;;;;;6.80;83.00;;;;;;5105885;28;19979;-66
2022/04/09 10:47:03;;;;;;;;;;;6.70;85.00;;;;;;5106014;28;19939;-66
2022/04/09 10:49:29;;;;;;;;;;;6.90;85.10;;;;;;5106055;28;19915;-66
2022/04/09 10:52:14;;;;;;;;;;;7.30;85.50;;;;;;5106122;28;19908;-66
2022/04/09 10:55:12;;;;;;;;;;;7.50;81.90;;;;;;5106012;28;19975;-66
2022/04/09 10:57:42;;;;;;;;;;;7.70;82.20;;;;;;5099971;28;19908;-66
2022/04/09 11:00:09;;;;;;;;;;;7.50;79.40;;;;;;5105291;28;20107;-66
2022/04/09 11:02:35;;;;;;;;;;;7.60;81.70;;;;;;5105700;28;20107;-67
2022/04/09 11:05:20;;;;;;;;;;;8.00;81.00;;;;;;5105379;28;19911;-66
2022/04/09 11:08:10;;;;;;;;;;;8.20;77.70;;;;;;5087914;28;19920;-65
2022/04/09 11:10:36;;;;;;;;;;;8.40;77.60;;;;;;5085023;28;19947;-65
2022/04/09 11:13:02;;;;;;;;;;;8.40;76.50;;;;;;5085410;28;19909;-66
2022/04/09 11:15:28;;;;;;;;;;;8.40;77.90;;;;;;5085122;28;19912;-66
2022/04/09 11:17:59;;;;;;;;;;;8.50;78.50;;;;;;5084428;28;19944;-65
2022/04/09 11:20:29;;;;;;;;;;;8.50;76.10;;;;;;5085224;28;20107;-66
2022/04/09 11:22:56;;;;;;;;;;;8.40;76.80;;;;;;5051168;28;19938;-65
2022/04/09 11:25:29;;;;;;;;;;;8.60;77.30;;;;;;5085122;28;19912;-66
2022/04/09 11:28:05;;;;;;;;;;;8.60;76.90;;;;;;5085025;28;19955;-66
2022/04/09 11:30:31;;;;;;;;;;;8.30;76.50;;;;;;5082338;28;19912;-65
2022/04/09 11:32:57;;;;;;;;;;;7.60;77.10;;;;;;5101933;28;20226;-65
2022/04/09 11:35:25;;;;;;;;;;;7.40;78.10;;;;;;5087073;28;19915;-65
2022/04/09 11:37:51;;;;;;;;;;;7.20;79.30;;;;;;5084967;28;19915;-65
2022/04/09 11:40:18;;;;;;;;;;;7.20;80.00;;;;;;5083768;28;19908;-65
2022/04/09 11:42:52;;;;;;;;;;;7.30;81.10;;;;;;5084690;28;20114;-66
2022/04/09 11:45:19;;;;;;;;;;;7.30;78.80;;;;;;5084425;28;19986;-66
2022/04/09 11:47:44;;;;;;;;;;;7.40;79.60;;;;;;5084653;28;19913;-66
2022/04/09 11:50:14;;;;;;;;;;;7.40;77.90;;;;;;5084625;28;20026;-66
2022/04/09 11:52:40;;;;;;;;;;;8.10;80.60;;;;;;5066636;28;19912;-66
2022/04/09 11:55:09;;;;;;;;;;;8.60;75.50;;;;;;5084682;28;19909;-65
2022/04/09 11:57:38;;;;;;;;;;;8.40;76.20;;;;;;5084484;28;20234;-66
2022/04/09 12:00:07;;;;;;;;;;;8.30;75.60;;;;;;5078672;28;19919;-66
2022/04/09 12:02:34;;;;;;;;;;;8.30;76.70;;;;;;5104672;28;19912;-65
2022/04/09 12:04:59;;;;;;;;;;;8.80;75.30;;;;;;5069334;28;19908;-65
2022/04/09 12:07:27;;;;;;;;;;;9.40;72.80;;;;;;5104654;28;20010;-65
2022/04/09 12:09:54;;;;;;;;;;;9.80;71.60;;;;;;5103489;28;20211;-66
2022/04/09 12:12:19;;;;;;;;;;;10.90;67.70;;;;;;5103331;28;19908;-65
2022/04/09 12:14:56;;;;;;;;;;;11.50;64.70;;;;;;5097494;28;20211;-66
2022/04/09 12:17:23;;;;;;;;;;;12.10;58.40;;;;;;5086777;28;19932;-66
2022/04/09 12:19:50;;;;;;;;;;;11.40;59.40;;;;;;5082921;28;20110;-66
2022/04/09 12:22:19;;;;;;;;;;;10.80;60.40;;;;;;5083877;28;19908;-66
2022/04/09 12:24:52;;;;;;;;;;;10.00;61.90;;;;;;5083929;28;19908;-66
2022/04/09 12:27:19;;;;;;;;;;;9.60;62.90;;;;;;5083697;28;20262;-66
2022/04/09 12:29:52;;;;;;;;;;;10.80;63.20;;;;;;5093091;28;20143;-68
2022/04/09 12:32:23;;;;;;;;;;;13.10;54.50;;;;;;5103861;28;19908;-69
2022/04/09 12:35:02;;;;;;;;;;;14.70;48.60;;;;;;5104369;28;19980;-68
2022/04/09 12:37:28;;;;;;;;;;;15.60;46.20;;;;;;5104190;28;19908;-69
2022/04/09 12:40:11;;;;;;;;;;;13.40;47.30;;;;;;5104008;28;20170;-68
2022/04/09 12:42:36;;;;;;;;;;;12.80;51.80;;;;;;5103686;28;20238;-69
2022/04/09 12:45:32;;;;;;;;;;;13.20;52.10;;;;;;5085567;28;19937;-69
2022/04/09 12:47:59;;;;;;;;;;;13.70;50.60;;;;;;5086500;28;19912;-68
2022/04/09 12:50:26;;;;;;;;;;;13.40;51.80;;;;;;5085715;28;20115;-70
2022/04/09 12:52:52;;;;;;;;;;;14.40;48.70;;;;;;5103546;28;19946;-69
2022/04/09 12:55:18;;;;;;;;;;;16.40;45.30;;;;;;5085726;28;19915;-69
2022/04/09 12:57:44;;;;;;;;;;;19.40;40.10;;;;;;5103768;28;19954;-69
2022/04/09 13:00:10;;;;;;;;;;;20.00;34.40;;;;;;5103245;28;19908;-69
2022/04/09 13:02:36;;;;;;;;;;;20.60;34.00;;;;;;5103377;28;19908;-68
2022/04/09 13:05:05;;;;;;;;;;;21.30;33.80;;;;;;5103675;28;19908;-67
2022/04/09 13:07:31;;;;;;;;;;;23.00;31.30;;;;;;5103619;28;19958;-68
2022/04/09 13:09:57;;;;;;;;;;;25.90;29.60;;;;;;5102219;28;19908;-68
2022/04/09 13:12:22;;;;;;;;;;;26.50;28.40;;;;;;5097092;28;20217;-67
2022/04/09 13:14:48;;;;;;;;;;;25.30;27.40;;;;;;5099557;28;19915;-67
2022/04/09 13:17:14;;;;;;;;;;;26.10;27.40;;;;;;5097999;28;19983;-67
2022/04/09 13:19:39;;;;;;;;;;;26.10;27.00;;;;;;5091892;28;19912;-68
2022/04/09 13:22:05;;;;;;;;;;;26.60;26.20;;;;;;5101078;28;19965;-68
2022/04/09 13:24:31;;;;;;;;;;;26.20;25.80;;;;;;5102846;28;20002;-68
2022/04/09 13:26:57;;;;;;;;;;;25.40;26.20;;;;;;5099138;28;20108;-68
2022/04/09 13:29:22;;;;;;;;;;;23.50;27.30;;;;;;5099380;28;19944;-67
2022/04/09 13:31:48;;;;;;;;;;;21.40;29.20;;;;;;5101171;28;19912;-68
2022/04/09 13:34:17;;;;;;;;;;;21.30;30.60;;;;;;5095518;28;19940;-68
2022/04/09 13:36:43;;;;;;;;;;;19.90;32.20;;;;;;5083024;28;19908;-67
2022/04/09 13:39:12;;;;;;;;;;;17.50;32.60;;;;;;5082262;28;19909;-67
2022/04/09 13:41:40;;;;;;;;;;;15.90;36.70;;;;;;5082521;28;19938;-68
2022/04/09 13:44:06;;;;;;;;;;;14.50;40.00;;;;;;5093098;28;19913;-68
2022/04/09 13:46:32;;;;;;;;;;;13.60;41.90;;;;;;5077849;28;19931;-67
2022/04/09 13:48:57;;;;;;;;;;;12.90;44.80;;;;;;5098222;28;19916;-67
2022/04/09 13:51:23;;;;;;;;;;;12.70;45.10;;;;;;5102552;28;19912;-67
2022/04/09 13:53:49;;;;;;;;;;;13.20;45.10;;;;;;5102885;28;19923;-68
2022/04/09 13:56:14;;;;;;;;;;;16.00;41.30;;;;;;5103013;28;19908;-68
2022/04/09 13:58:40;;;;;;;;;;;17.80;37.20;;;;;;5102876;28;19942;-68
2022/04/09 14:01:06;;;;;;;;;;;19.70;34.50;;;;;;5101367;28;19923;-68
2022/04/09 14:03:32;;;;;;;;;;;21.00;32.10;;;;;;5102748;28;20036;-69
2022/04/09 14:05:59;;;;;;;;;;;21.80;31.00;;;;;;5102377;28;19914;-69
2022/04/09 14:08:25;;;;;;;;;;;22.70;29.10;;;;;;5084577;28;19945;-69
2022/04/09 14:10:51;;;;;;;;;;;21.30;29.90;;;;;;5102518;28;19908;-69
2022/04/09 14:13:16;;;;;;;;;;;18.80;32.30;;;;;;5102864;28;19943;-68
2022/04/09 14:15:42;;;;;;;;;;;16.50;35.70;;;;;;5102535;28;19916;-68
2022/04/09 14:18:09;;;;;;;;;;;15.10;39.30;;;;;;5102801;28;19950;-67
2022/04/09 14:20:34;;;;;;;;;;;13.90;42.20;;;;;;5102461;28;19908;-68
2022/04/09 14:23:03;;;;;;;;;;;13.00;45.70;;;;;;5102763;28;19928;-67
2022/04/09 14:25:30;;;;;;;;;;;11.80;53.00;;;;;;5102684;28;19940;-68
2022/04/09 14:27:57;;;;;;;;;;;10.80;58.60;;;;;;5102553;28;19912;-67
2022/04/09 14:30:23;;;;;;;;;;;10.20;63.50;;;;;;5102218;28;20219;-67
2022/04/09 14:32:49;;;;;;;;;;;9.80;70.00;;;;;;5084544;28;19915;-68